Time;durP1;ratioP1;P1;durP2;ratioP2;P2;SDS_P1;SDS_P2;PMS_P1;PMS_P2;Temp;Humidity;BMP_temperature;BMP_pressure;BME280_temperature;BME280_humidity;BME280_pressure;Samples;Min_cycle;Max_cycle;Signal;HPM_P1;HPM_P2
2024/04/16 00:01:18;;;;;;;;;;;;;;;15.21;42.65;99227.84;5255993;26;94218;-72
2024/04/16 00:03:44;;;;;;;;;;;;;;;15.18;42.93;99213.00;5273598;26;94738;-72
2024/04/16 00:06:10;;;;;;;;;;;;;;;15.17;42.52;99218.75;5256675;26;94431;-73
2024/04/16 00:08:36;;;;;;;;;;;;;;;15.15;42.48;99227.19;5197239;26;94301;-72
2024/04/16 00:11:02;;;;;;;;;;;;;;;15.13;42.78;99223.22;5219957;26;94563;-73
2024/04/16 00:13:28;;;;;;;;;;;;;;;15.12;43.10;99229.78;5257086;26;94326;-72
2024/04/16 00:15:54;;;;;;;;;;;;;;;15.09;43.12;99227.72;5244915;26;95341;-73
2024/04/16 00:18:20;;;;;;;;;;;;;;;15.07;42.58;99229.97;5251605;26;94631;-73
2024/04/16 00:20:47;;;;;;;;;;;;;;;15.03;43.24;99224.41;5230346;26;95403;-72
2024/04/16 00:23:13;;;;;;;;;;;;;;;15.02;42.93;99232.88;5251311;26;94414;-72
2024/04/16 00:25:39;;;;;;;;;;;;;;;15.00;42.56;99226.97;5189233;26;95842;-72
2024/04/16 00:28:05;;;;;;;;;;;;;;;14.98;43.24;99198.25;5246643;26;94654;-72
2024/04/16 00:30:31;;;;;;;;;;;;;;;14.96;42.97;99211.31;5218742;26;94497;-73
2024/04/16 00:32:58;;;;;;;;;;;;;;;14.95;42.93;99208.94;5220068;26;94556;-72
2024/04/16 00:35:24;;;;;;;;;;;;;;;14.92;42.92;99209.59;5204496;26;95341;-73
2024/04/16 00:37:50;;;;;;;;;;;;;;;14.91;42.92;99221.59;5220982;26;94250;-72
2024/04/16 00:40:16;;;;;;;;;;;;;;;14.89;42.71;99216.47;5271235;26;95011;-72
2024/04/16 00:42:42;;;;;;;;;;;;;;;14.87;42.81;99226.06;5224131;26;94822;-72
2024/04/16 00:45:09;;;;;;;;;;;;;;;14.84;42.84;99216.66;5201541;26;96287;-72
2024/04/16 00:47:36;;;;;;;;;;;;;;;14.83;42.69;99227.84;5246921;26;95656;-73
2024/04/16 00:50:02;;;;;;;;;;;;;;;14.80;42.64;99223.84;5204683;26;95579;-72
2024/04/16 00:52:29;;;;;;;;;;;;;;;14.78;42.61;99226.09;5228104;26;98381;-72
2024/04/16 00:54:55;;;;;;;;;;;;;;;14.76;43.08;99239.19;5220332;26;94759;-73
2024/04/16 00:57:22;;;;;;;;;;;;;;;14.75;42.93;99242.22;5204798;26;95651;-72
2024/04/16 00:59:49;;;;;;;;;;;;;;;14.71;42.70;99242.88;5232972;26;94166;-72
2024/04/16 01:02:15;;;;;;;;;;;;;;;14.70;43.15;99241.28;5231416;26;94774;-72
2024/04/16 01:04:41;;;;;;;;;;;;;;;14.69;42.72;99241.59;5196581;26;96549;-72
2024/04/16 01:07:08;;;;;;;;;;;;;;;14.69;43.00;99238.88;5230350;26;94087;-72
2024/04/16 01:09:34;;;;;;;;;;;;;;;14.67;42.95;99239.22;5235158;26;101434;-72
2024/04/16 01:12:00;;;;;;;;;;;;;;;14.66;43.09;99247.69;5203028;26;94715;-72
2024/04/16 01:14:26;;;;;;;;;;;;;;;14.65;42.81;99238.72;5231189;26;95722;-72
2024/04/16 01:16:52;;;;;;;;;;;;;;;14.64;42.54;99234.44;5250946;26;94095;-72
2024/04/16 01:19:18;;;;;;;;;;;;;;;14.63;42.85;99229.34;5245506;26;94210;-73
2024/04/16 01:21:44;;;;;;;;;;;;;;;14.61;42.96;99226.94;5249859;26;94771;-72
2024/04/16 01:24:10;;;;;;;;;;;;;;;14.60;42.72;99222.63;5248351;26;95158;-72
2024/04/16 01:26:36;;;;;;;;;;;;;;;14.58;42.64;99224.06;5196602;26;94843;-72
2024/04/16 01:29:03;;;;;;;;;;;;;;;14.56;42.43;99218.97;5193344;26;95919;-73
2024/04/16 01:31:31;;;;;;;;;;;;;;;14.55;42.99;99222.03;5230986;26;94647;-71
2024/04/16 01:33:57;;;;;;;;;;;;;;;14.53;42.80;99216.13;5250827;26;94170;-72
2024/04/16 01:36:23;;;;;;;;;;;;;;;14.51;43.06;99212.94;5191140;26;94197;-72
2024/04/16 01:38:50;;;;;;;;;;;;;;;14.49;42.94;99213.25;5254776;26;97092;-72
2024/04/16 01:41:16;;;;;;;;;;;;;;;14.47;43.04;99216.28;5234383;26;94654;-71
2024/04/16 01:43:43;;;;;;;;;;;;;;;14.45;42.81;99221.22;5260936;26;94362;-72
2024/04/16 01:46:09;;;;;;;;;;;;;;;14.43;42.87;99218.03;5248135;26;94505;-72
2024/04/16 01:48:35;;;;;;;;;;;;;;;14.41;42.42;99208.63;5201766;26;94316;-72
2024/04/16 01:51:01;;;;;;;;;;;;;;;14.39;42.53;99208.16;5252132;26;94519;-71
2024/04/16 01:53:27;;;;;;;;;;;;;;;14.37;42.76;99208.47;5227886;26;94203;-71
2024/04/16 01:55:53;;;;;;;;;;;;;;;14.36;42.81;99208.81;5251708;26;94600;-71
2024/04/16 01:58:19;;;;;;;;;;;;;;;14.34;42.82;99208.31;5223656;26;94297;-72
2024/04/16 02:00:46;;;;;;;;;;;;;;;14.32;42.67;99205.94;5232046;26;94207;-72
2024/04/16 02:03:12;;;;;;;;;;;;;;;14.29;42.82;99206.56;5276156;26;94286;-72
2024/04/16 02:05:40;;;;;;;;;;;;;;;14.27;42.80;99202.63;5219817;26;94556;-71
2024/04/16 02:08:06;;;;;;;;;;;;;;;14.24;42.97;99190.50;5195712;26;94716;-72
2024/04/16 02:10:32;;;;;;;;;;;;;;;14.23;42.77;99192.41;5221699;26;95739;-71
2024/04/16 02:12:58;;;;;;;;;;;;;;;14.21;42.75;99189.22;5275525;26;94286;-71
2024/04/16 02:15:24;;;;;;;;;;;;;;;14.18;43.15;99183.63;5221414;26;95108;-72
2024/04/16 02:17:50;;;;;;;;;;;;;;;14.17;42.78;99190.97;5195670;26;94600;-71
2024/04/16 02:20:17;;;;;;;;;;;;;;;14.15;42.82;99187.00;5252891;26;95162;-71
2024/04/16 02:22:43;;;;;;;;;;;;;;;14.14;42.87;99198.94;5191725;26;96404;-72
2024/04/16 02:25:10;;;;;;;;;;;;;;;14.10;42.82;99196.09;5246883;26;94396;-72
2024/04/16 02:27:36;;;;;;;;;;;;;;;14.09;42.93;99197.22;5247728;26;94493;-71
2024/04/16 02:30:02;;;;;;;;;;;;;;;14.07;42.81;99194.03;5261620;26;96291;-71
2024/04/16 02:32:29;;;;;;;;;;;;;;;14.06;42.85;99194.34;5234169;26;94313;-71
2024/04/16 02:34:55;;;;;;;;;;;;;;;14.04;42.81;99185.75;5253979;26;94666;-71
2024/04/16 02:37:21;;;;;;;;;;;;;;;14.03;43.11;99176.84;5252299;26;94781;-71
2024/04/16 02:39:47;;;;;;;;;;;;;;;14.02;42.75;99177.13;5222984;26;94796;-71
2024/04/16 02:42:13;;;;;;;;;;;;;;;14.00;42.54;99167.44;5229768;26;94453;-72
2024/04/16 02:44:40;;;;;;;;;;;;;;;14.00;42.77;99166.63;5205615;26;94878;-71
2024/04/16 02:47:06;;;;;;;;;;;;;;;14.00;42.84;99164.72;5253791;26;95630;-71
2024/04/16 02:49:32;;;;;;;;;;;;;;;13.99;42.83;99157.72;5193882;26;94368;-71
2024/04/16 02:51:58;;;;;;;;;;;;;;;13.99;42.75;99159.63;5232367;26;94018;-71
2024/04/16 02:54:24;;;;;;;;;;;;;;;13.98;42.75;99160.72;5247399;26;94851;-71
2024/04/16 02:56:50;;;;;;;;;;;;;;;13.98;42.90;99164.22;5200248;26;94390;-71
2024/04/16 02:59:16;;;;;;;;;;;;;;;13.98;42.77;99161.50;5253344;26;95761;-71
2024/04/16 03:01:42;;;;;;;;;;;;;;;13.98;42.77;99166.94;5230377;26;96078;-71
2024/04/16 03:04:09;;;;;;;;;;;;;;;13.97;42.85;99159.94;5232044;26;94582;-70
2024/04/16 03:06:35;;;;;;;;;;;;;;;13.97;43.02;99149.09;5203222;26;94350;-71
2024/04/16 03:09:01;;;;;;;;;;;;;;;13.96;42.80;99155.63;5249169;26;97285;-71
2024/04/16 03:11:27;;;;;;;;;;;;;;;13.96;42.79;99155.63;5218136;26;117876;-71
2024/04/16 03:13:53;;;;;;;;;;;;;;;13.96;42.73;99152.94;5222904;26;94458;-70
2024/04/16 03:16:19;;;;;;;;;;;;;;;13.95;42.73;99153.22;5221317;26;94297;-71
2024/04/16 03:18:47;;;;;;;;;;;;;;;13.94;42.66;99152.44;5254417;26;94371;-71
2024/04/16 03:21:14;;;;;;;;;;;;;;;13.94;42.72;99152.44;5198617;26;94337;-71
2024/04/16 03:23:40;;;;;;;;;;;;;;;13.93;42.41;99148.16;5249427;26;94642;-71
2024/04/16 03:26:06;;;;;;;;;;;;;;;13.93;42.77;99147.34;5250095;26;95842;-71
2024/04/16 03:28:32;;;;;;;;;;;;;;;13.93;42.74;99150.06;5194080;26;94707;-71
2024/04/16 03:30:59;;;;;;;;;;;;;;;13.92;43.00;99146.56;5194307;26;94232;-71
2024/04/16 03:33:25;;;;;;;;;;;;;;;13.91;42.72;99144.97;5250628;26;94387;-71
2024/04/16 03:35:54;;;;;;;;;;;;;;;13.90;42.71;99151.50;5279773;26;94313;-71
2024/04/16 03:38:20;;;;;;;;;;;;;;;13.91;42.75;99149.56;5232369;26;94651;-71
2024/04/16 03:40:57;;;;;;;;;;;;;;;13.89;42.54;99141.00;5189478;26;97094;-71
2024/04/16 03:43:23;;;;;;;;;;;;;;;13.89;42.58;99149.91;5222758;26;96583;-71
2024/04/16 03:45:53;;;;;;;;;;;;;;;13.89;42.65;99162.66;5215004;26;95145;-71
2024/04/16 03:48:19;;;;;;;;;;;;;;;13.87;42.75;99149.44;5226945;26;95313;-71
2024/04/16 03:50:46;;;;;;;;;;;;;;;13.87;42.77;99159.47;5252256;26;94128;-71
2024/04/16 03:53:12;;;;;;;;;;;;;;;13.87;42.79;99151.34;5188478;26;94539;-71
2024/04/16 03:55:38;;;;;;;;;;;;;;;13.86;42.75;99152.47;5230568;26;102956;-71
2024/04/16 03:58:04;;;;;;;;;;;;;;;13.85;42.32;99151.66;5195774;26;116366;-71
2024/04/16 04:03:16;;;;;;;;;;;;;;;13.85;42.69;99143.53;5247634;26;94787;-71
2024/04/16 04:05:46;;;;;;;;;;;;;;;13.85;42.94;99156.28;5263465;26;94424;-71
2024/04/16 04:08:12;;;;;;;;;;;;;;;13.85;42.70;99148.97;5227914;26;94043;-71
2024/04/16 04:10:38;;;;;;;;;;;;;;;13.84;42.75;99141.16;5248929;26;94500;-71
2024/04/16 04:13:04;;;;;;;;;;;;;;;13.83;42.85;99140.34;5250327;26;94572;-72
2024/04/16 04:15:31;;;;;;;;;;;;;;;13.84;42.72;99143.88;5223763;26;94485;-72
2024/04/16 04:17:57;;;;;;;;;;;;;;;13.84;42.72;99146.56;5226342;26;94286;-71
2024/04/16 04:20:23;;;;;;;;;;;;;;;13.83;42.78;99140.34;5252963;26;95974;-71
2024/04/16 04:22:49;;;;;;;;;;;;;;;13.83;42.62;99153.88;5229707;26;96027;-71
2024/04/16 04:25:15;;;;;;;;;;;;;;;13.83;42.63;99151.16;5255703;26;94476;-71
2024/04/16 04:27:42;;;;;;;;;;;;;;;13.85;42.50;99151.66;5249410;26;94610;-72
2024/04/16 04:30:08;;;;;;;;;;;;;;;13.85;42.61;99151.66;5249148;26;96271;-71
2024/04/16 04:32:35;;;;;;;;;;;;;;;13.84;42.53;99141.94;5246098;26;94397;-71
2024/04/16 04:35:02;;;;;;;;;;;;;;;13.85;42.83;99140.03;5216114;26;94564;-71
2024/04/16 04:37:28;;;;;;;;;;;;;;;13.86;42.63;99139.72;5197074;26;96003;-72
2024/04/16 04:39:54;;;;;;;;;;;;;;;13.88;42.62;99147.53;5272817;26;94748;-72
2024/04/16 04:42:21;;;;;;;;;;;;;;;13.89;42.46;99146.41;5196686;26;94762;-71
2024/04/16 04:44:48;;;;;;;;;;;;;;;13.90;42.68;99150.69;5255796;26;96031;-71
2024/04/16 04:47:14;;;;;;;;;;;;;;;13.91;42.69;99152.28;5209858;26;94602;-71
2024/04/16 04:49:40;;;;;;;;;;;;;;;13.93;42.69;99153.56;5184368;26;94315;-71
2024/04/16 04:52:06;;;;;;;;;;;;;;;13.98;42.49;99160.72;5182336;26;95797;-71
2024/04/16 04:54:34;;;;;;;;;;;;;;;14.02;42.71;99153.53;5253217;26;94848;-71
2024/04/16 04:57:00;;;;;;;;;;;;;;;14.05;42.52;99152.91;5226696;26;95161;-71
2024/04/16 04:59:26;;;;;;;;;;;;;;;14.09;42.45;99143.00;5188080;26;95684;-71
2024/04/16 05:01:53;;;;;;;;;;;;;;;14.13;42.44;99162.13;5240768;26;94940;-72
2024/04/16 05:04:19;;;;;;;;;;;;;;;14.15;42.56;99160.72;5214413;26;96086;-72
2024/04/16 05:06:45;;;;;;;;;;;;;;;14.18;42.44;99156.53;5193589;26;95002;-72
2024/04/16 05:09:11;;;;;;;;;;;;;;;14.17;42.56;99155.75;5190581;26;94429;-72
2024/04/16 05:11:40;;;;;;;;;;;;;;;14.18;42.34;99153.84;5246399;26;94450;-72
2024/04/16 05:14:09;;;;;;;;;;;;;;;14.17;42.48;99163.09;5225989;26;94652;-71
2024/04/16 05:16:36;;;;;;;;;;;;;;;14.16;42.43;99159.59;5195950;26;94469;-72
2024/04/16 05:19:03;;;;;;;;;;;;;;;14.19;42.39;99156.25;5225694;26;94747;-72
2024/04/16 05:21:30;;;;;;;;;;;;;;;14.27;41.84;99159.25;5200037;26;94117;-71
2024/04/16 05:23:56;;;;;;;;;;;;;;;14.32;42.40;99159.06;5188563;26;95100;-72
2024/04/16 05:26:23;;;;;;;;;;;;;;;14.36;42.32;99162.72;5217024;26;96443;-72
2024/04/16 05:28:52;;;;;;;;;;;;;;;14.40;42.35;99160.97;5254277;26;98723;-71
2024/04/16 05:31:19;;;;;;;;;;;;;;;14.40;42.26;99160.97;5243888;26;99581;-72
2024/04/16 05:33:45;;;;;;;;;;;;;;;14.47;42.25;99169.38;5224622;26;94726;-71
2024/04/16 05:36:11;;;;;;;;;;;;;;;14.53;42.14;99170.81;5222259;26;95645;-72
2024/04/16 05:38:37;;;;;;;;;;;;;;;14.60;42.08;99164.91;5244001;26;96988;-72
2024/04/16 05:41:04;;;;;;;;;;;;;;;14.66;42.05;99172.53;5226029;26;96681;-71
2024/04/16 05:43:31;;;;;;;;;;;;;;;14.75;41.98;99172.50;5231392;26;95888;-71
2024/04/16 05:45:58;;;;;;;;;;;;;;;14.85;41.74;99163.97;5200058;26;95395;-71
2024/04/16 05:48:24;;;;;;;;;;;;;;;14.87;41.98;99167.19;5255239;26;96152;-71
2024/04/16 05:50:50;;;;;;;;;;;;;;;14.94;42.31;99180.25;5187781;26;94801;-72
2024/04/16 05:53:17;;;;;;;;;;;;;;;15.01;41.60;99182.41;5197734;26;94648;-72
2024/04/16 05:55:43;;;;;;;;;;;;;;;15.12;41.85;99184.44;5198595;26;94703;-72
2024/04/16 05:58:10;;;;;;;;;;;;;;;15.31;41.58;99175.06;5254474;26;96831;-73
2024/04/16 06:00:37;;;;;;;;;;;;;;;15.44;42.18;99174.84;5187327;26;95332;-72
2024/04/16 06:03:04;;;;;;;;;;;;;;;15.67;41.93;99178.00;5229335;26;95628;-72
2024/04/16 06:05:30;;;;;;;;;;;;;;;15.88;41.76;99182.66;5228290;26;94945;-71
2024/04/16 06:07:57;;;;;;;;;;;;;;;15.98;42.00;99184.94;5252109;26;94870;-72
2024/04/16 06:10:23;;;;;;;;;;;;;;;16.11;41.63;99175.72;5200483;26;97293;-72
2024/04/16 06:12:50;;;;;;;;;;;;;;;16.24;41.97;99165.69;5228406;26;94582;-73
2024/04/16 06:15:16;;;;;;;;;;;;;;;16.19;41.56;99179.47;5248616;26;95982;-71
2024/04/16 06:17:42;;;;;;;;;;;;;;;16.16;41.80;99183.66;5242489;26;94339;-72
2024/04/16 06:20:09;;;;;;;;;;;;;;;16.20;41.27;99191.94;5194325;26;94465;-72
2024/04/16 06:22:36;;;;;;;;;;;;;;;16.37;41.55;99180.88;5219124;26;94637;-72
2024/04/16 06:25:02;;;;;;;;;;;;;;;16.66;40.89;99171.78;5251593;26;94755;-72
2024/04/16 06:27:29;;;;;;;;;;;;;;;17.01;41.26;99175.97;5228903;26;95734;-71
2024/04/16 06:29:56;;;;;;;;;;;;;;;17.08;41.05;99181.66;5198744;26;99582;-71
2024/04/16 06:32:22;;;;;;;;;;;;;;;17.18;41.42;99183.94;5189935;26;94950;-71
2024/04/16 06:34:48;;;;;;;;;;;;;;;17.13;41.29;99184.97;5228341;26;94673;-71
2024/04/16 06:37:15;;;;;;;;;;;;;;;17.13;41.69;99182.25;5248716;26;94491;-71
2024/04/16 06:39:41;;;;;;;;;;;;;;;17.22;40.86;99187.56;5202158;26;94778;-71
2024/04/16 06:42:08;;;;;;;;;;;;;;;17.30;40.86;99191.28;5248612;26;94343;-71
2024/04/16 06:44:36;;;;;;;;;;;;;;;17.88;40.77;99184.47;5247278;26;94947;-71
2024/04/16 06:47:02;;;;;;;;;;;;;;;18.39;40.39;99187.41;5217870;26;114612;-72
2024/04/16 06:49:29;;;;;;;;;;;;;;;19.32;39.93;99175.22;5197598;26;96483;-72
2024/04/16 06:51:56;;;;;;;;;;;;;;;20.37;38.47;99181.66;5275820;26;95747;-72
2024/04/16 06:54:22;;;;;;;;;;;;;;;20.94;38.23;99168.94;5228205;26;94489;-72
2024/04/16 06:56:48;;;;;;;;;;;;;;;21.12;38.85;99180.97;5223540;26;94800;-72
2024/04/16 06:59:15;;;;;;;;;;;;;;;21.44;39.04;99175.97;5225351;26;94936;-71
2024/04/16 07:01:41;;;;;;;;;;;;;;;21.31;39.29;99183.59;5196584;26;94463;-73
2024/04/16 07:04:10;;;;;;;;;;;;;;;21.06;39.42;99182.44;5269609;26;94499;-73
2024/04/16 07:06:36;;;;;;;;;;;;;;;21.12;40.44;99180.97;5254059;26;95420;-72
2024/04/16 07:09:02;;;;;;;;;;;;;;;20.92;40.63;99190.44;5199624;26;94372;-72
2024/04/16 07:11:29;;;;;;;;;;;;;;;20.76;40.75;99188.63;5229723;26;94648;-72
2024/04/16 07:13:56;;;;;;;;;;;;;;;21.42;39.45;99183.78;5246062;26;95797;-73
2024/04/16 07:16:26;;;;;;;;;;;;;;;21.82;39.82;99185.09;5218148;26;94981;-71
2024/04/16 07:18:52;;;;;;;;;;;;;;;21.52;40.17;99183.13;5225063;26;96534;-72
2024/04/16 07:21:19;;;;;;;;;;;;;;;21.69;40.40;99181.81;5214004;26;94452;-71
2024/04/16 07:23:45;;;;;;;;;;;;;;;21.34;39.73;99193.06;5244527;26;94978;-73
2024/04/16 07:26:11;;;;;;;;;;;;;;;21.58;39.87;99191.06;5253909;26;94472;-71
2024/04/16 07:28:38;;;;;;;;;;;;;;;21.74;39.78;99184.19;5232175;26;94902;-71
2024/04/16 07:31:05;;;;;;;;;;;;;;;21.86;40.29;99185.13;5248612;26;94524;-71
2024/04/16 07:33:33;;;;;;;;;;;;;;;22.08;40.35;99186.94;5226094;26;96477;-73
2024/04/16 07:35:59;;;;;;;;;;;;;;;22.23;39.80;99187.91;5250915;26;94686;-71
2024/04/16 07:38:25;;;;;;;;;;;;;;;22.48;39.73;99186.22;5251285;26;94467;-72
2024/04/16 07:40:54;;;;;;;;;;;;;;;22.20;39.43;99196.91;5251080;26;99771;-71
2024/04/16 07:43:21;;;;;;;;;;;;;;;22.75;39.44;99183.31;5254405;26;94884;-73
2024/04/16 07:45:47;;;;;;;;;;;;;;;22.30;39.66;99196.22;5220862;26;95335;-72
2024/04/16 07:48:15;;;;;;;;;;;;;;;22.40;40.15;99183.78;5192094;26;95244;-72
2024/04/16 07:50:42;;;;;;;;;;;;;;;22.39;39.82;99184.94;5192853;26;95017;-73
2024/04/16 07:53:08;;;;;;;;;;;;;;;22.32;40.38;99187.59;5200946;26;95003;-72
2024/04/16 07:55:34;;;;;;;;;;;;;;;22.66;39.95;99191.09;5228150;26;95789;-71
2024/04/16 07:58:00;;;;;;;;;;;;;;;22.23;40.49;99199.69;5248011;26;94726;-73
2024/04/16 08:00:28;;;;;;;;;;;;;;;22.27;40.19;99206.00;5250017;26;98956;-71
2024/04/16 08:02:58;;;;;;;;;;;;;;;23.11;39.56;99186.34;5231274;26;94908;-72
2024/04/16 08:05:24;;;;;;;;;;;;;;;22.96;39.36;99189.00;5222458;26;95973;-73
2024/04/16 08:07:50;;;;;;;;;;;;;;;23.10;39.10;99199.31;5190299;26;94394;-74
2024/04/16 08:10:17;;;;;;;;;;;;;;;23.02;39.88;99192.19;5245881;26;95630;-73
2024/04/16 08:12:43;;;;;;;;;;;;;;;22.93;40.13;99189.78;5232801;26;94206;-71
2024/04/16 08:15:09;;;;;;;;;;;;;;;22.63;40.50;99195.38;5242064;26;94421;-71
2024/04/16 08:17:35;;;;;;;;;;;;;;;22.51;40.43;99190.16;5187076;26;94831;-72
2024/04/16 08:20:02;;;;;;;;;;;;;;;22.42;40.19;99190.47;5217461;26;94819;-72
2024/04/16 08:22:28;;;;;;;;;;;;;;;23.15;39.68;99185.22;5255105;26;95473;-72
2024/04/16 08:24:54;;;;;;;;;;;;;;;23.46;39.30;99197.59;5213539;26;94881;-71
2024/04/16 08:27:22;;;;;;;;;;;;;;;24.28;39.20;99193.59;5226727;26;94489;-72
2024/04/16 08:29:49;;;;;;;;;;;;;;;24.11;39.27;99193.19;5247045;26;94212;-71
2024/04/16 08:32:16;;;;;;;;;;;;;;;23.82;39.67;99186.78;5228424;26;94606;-72
2024/04/16 08:34:43;;;;;;;;;;;;;;;23.76;39.46;99191.09;5250053;26;102368;-73
2024/04/16 08:37:10;;;;;;;;;;;;;;;23.51;40.10;99190.94;5245005;26;95408;-71
2024/04/16 08:39:36;;;;;;;;;;;;;;;23.59;39.85;99197.25;5242135;26;95574;-71
2024/04/16 08:42:02;;;;;;;;;;;;;;;24.61;39.05;99203.53;5189395;26;94716;-71
2024/04/16 08:44:29;;;;;;;;;;;;;;;24.57;39.13;99205.50;5225807;26;94796;-73
2024/04/16 08:46:57;;;;;;;;;;;;;;;25.37;38.77;99194.84;5227376;26;94766;-71
2024/04/16 08:49:30;;;;;;;;;;;;;;;25.95;37.90;99189.97;5250881;26;94747;-72
2024/04/16 08:51:57;;;;;;;;;;;;;;;27.68;36.84;99185.44;5200654;26;94930;-72
2024/04/16 08:54:24;;;;;;;;;;;;;;;28.31;37.34;99196.91;5185726;26;97767;-71
2024/04/16 08:56:50;;;;;;;;;;;;;;;28.55;37.29;99200.53;5250309;26;94911;-74
2024/04/16 08:59:17;;;;;;;;;;;;;;;29.50;36.59;99201.31;5220637;26;95667;-74
2024/04/16 09:01:51;;;;;;;;;;;;;;;28.60;37.96;99204.81;5190467;26;94691;-71
2024/04/16 09:04:17;;;;;;;;;;;;;;;29.84;37.72;99195.53;5218557;26;94854;-74
2024/04/16 09:06:47;;;;;;;;;;;;;;;29.08;37.80;99193.38;5220998;26;94921;-71
2024/04/16 09:09:13;;;;;;;;;;;;;;;28.79;38.04;99193.03;5225468;26;95253;-73
2024/04/16 09:11:43;;;;;;;;;;;;;;;28.89;38.68;99198.84;5242668;26;94652;-71
2024/04/16 09:14:10;;;;;;;;;;;;;;;29.44;37.48;99186.38;5196815;26;94604;-74
2024/04/16 09:16:36;;;;;;;;;;;;;;;30.44;36.78;99187.09;5199436;26;94636;-75
2024/04/16 09:19:09;;;;;;;;;;;;;;;30.26;37.31;99187.50;5230099;26;94368;-74
2024/04/16 09:21:36;;;;;;;;;;;;;;;31.28;36.93;99186.22;5196067;26;94769;-74
2024/04/16 09:24:05;;;;;;;;;;;;;;;31.85;36.68;99185.88;5271714;26;95900;-74
2024/04/16 09:26:37;;;;;;;;;;;;;;;33.30;35.77;99173.28;5227423;26;96131;-72
2024/04/16 09:29:04;;;;;;;;;;;;;;;33.90;35.17;99189.88;5247233;26;95024;-74
2024/04/16 09:31:30;;;;;;;;;;;;;;;33.37;36.42;99182.19;5249600;26;94995;-72
2024/04/16 09:34:06;;;;;;;;;;;;;;;35.32;35.33;99188.16;5255361;26;95307;-75
2024/04/16 09:36:33;;;;;;;;;;;;;;;36.04;34.69;99189.38;5245422;26;94289;-72
2024/04/16 09:38:59;;;;;;;;;;;;;;;37.17;34.15;99183.47;5189431;26;94475;-76
2024/04/16 09:41:27;;;;;;;;;;;;;;;34.90;36.89;99181.13;5227120;26;94938;-74
2024/04/16 09:43:53;;;;;;;;;;;;;;;34.99;36.11;99174.00;5215721;26;94630;-72
2024/04/16 09:46:19;;;;;;;;;;;;;;;36.05;35.25;99162.09;5194980;26;94527;-72
2024/04/16 09:48:45;;;;;;;;;;;;;;;35.48;35.55;99175.88;5225773;26;95588;-75
2024/04/16 09:51:11;;;;;;;;;;;;;;;34.39;36.90;99170.41;5245850;26;95608;-72
2024/04/16 09:53:39;;;;;;;;;;;;;;;33.24;37.84;99153.53;5193725;26;94529;-75
2024/04/16 09:56:06;;;;;;;;;;;;;;;32.48;38.48;99154.50;5247400;26;94284;-72
2024/04/16 09:58:38;;;;;;;;;;;;;;;32.60;38.12;99158.50;5253866;26;94709;-72
2024/04/16 10:01:04;;;;;;;;;;;;;;;34.90;36.47;99155.16;5228480;26;96991;-72
2024/04/16 10:03:32;;;;;;;;;;;;;;;36.17;35.17;99171.56;5245377;26;94850;-72
2024/04/16 10:05:58;;;;;;;;;;;;;;;37.35;34.65;99167.25;5218545;26;94450;-72
2024/04/16 10:08:25;;;;;;;;;;;;;;;37.89;34.93;99170.06;5193424;26;98108;-72
2024/04/16 10:10:52;;;;;;;;;;;;;;;36.12;35.94;99158.97;5222131;26;96509;-72
2024/04/16 10:13:18;;;;;;;;;;;;;;;34.89;37.85;99162.75;5228302;26;94451;-72
2024/04/16 10:15:45;;;;;;;;;;;;;;;34.02;37.95;99154.72;5244713;26;96594;-74
2024/04/16 10:18:14;;;;;;;;;;;;;;;33.18;38.73;99147.00;5196134;26;96067;-74
2024/04/16 10:20:56;;;;;;;;;;;;;;;32.48;39.32;99154.50;5241522;26;94233;-73
2024/04/16 10:23:22;;;;;;;;;;;;;;;31.80;38.84;99150.97;5225646;26;95316;-72
2024/04/16 10:25:51;;;;;;;;;;;;;;;31.35;39.75;99162.19;5225196;26;95896;-72
2024/04/16 10:28:31;;;;;;;;;;;;;;;30.71;40.19;99151.47;5247555;26;94888;-73
2024/04/16 10:31:00;;;;;;;;;;;;;;;30.09;39.98;99167.22;5224372;26;94421;-72
2024/04/16 10:33:27;;;;;;;;;;;;;;;29.65;40.36;99165.78;5221590;26;95251;-71
2024/04/16 10:35:56;;;;;;;;;;;;;;;29.31;40.19;99169.56;5194952;26;94886;-72
2024/04/16 10:38:25;;;;;;;;;;;;;;;29.08;40.31;99162.88;5221492;26;94471;-73
2024/04/16 10:40:55;;;;;;;;;;;;;;;29.70;39.80;99170.81;5227520;26;95054;-72
2024/04/16 10:43:25;;;;;;;;;;;;;;;29.22;39.87;99166.56;5193350;26;94562;-73
2024/04/16 10:45:51;;;;;;;;;;;;;;;28.98;39.96;99152.75;5220557;26;95409;-72
2024/04/16 10:48:23;;;;;;;;;;;;;;;28.64;39.28;99172.28;5243193;26;94340;-73
2024/04/16 10:50:50;;;;;;;;;;;;;;;28.25;39.99;99168.09;5273117;26;97382;-72
2024/04/16 10:53:19;;;;;;;;;;;;;;;27.94;40.19;99164.56;5252076;26;95651;-72
2024/04/16 10:55:45;;;;;;;;;;;;;;;27.74;40.16;99166.41;5199049;26;95046;-72
2024/04/16 10:58:12;;;;;;;;;;;;;;;27.58;40.04;99167.75;5226660;26;95144;-73
2024/04/16 11:00:39;;;;;;;;;;;;;;;27.31;40.21;99175.16;5227066;26;95656;-74
2024/04/16 11:03:05;;;;;;;;;;;;;;;27.09;40.03;99169.06;5194364;26;94839;-72
2024/04/16 11:05:32;;;;;;;;;;;;;;;26.85;40.21;99166.13;5253809;26;94558;-73
2024/04/16 11:07:58;;;;;;;;;;;;;;;26.46;39.69;99160.91;5226717;26;94708;-73
2024/04/16 11:10:24;;;;;;;;;;;;;;;26.07;41.01;99172.94;5187622;26;94478;-73
2024/04/16 11:12:50;;;;;;;;;;;;;;;25.84;41.19;99175.44;5224874;26;98735;-73
2024/04/16 11:15:16;;;;;;;;;;;;;;;25.65;39.89;99168.38;5196295;26;94531;-74
2024/04/16 11:17:42;;;;;;;;;;;;;;;25.49;40.51;99168.03;5248963;26;94905;-73
2024/04/16 11:20:08;;;;;;;;;;;;;;;25.36;40.55;99167.69;5271840;26;94386;-74
2024/04/16 11:22:34;;;;;;;;;;;;;;;25.21;39.90;99175.97;5225197;26;94486;-73
2024/04/16 11:25:01;;;;;;;;;;;;;;;25.08;41.24;99179.53;5269476;26;97682;-75
2024/04/16 11:27:28;;;;;;;;;;;;;;;24.95;40.37;99179.13;5240160;26;96188;-73
2024/04/16 11:29:54;;;;;;;;;;;;;;;24.78;40.85;99172.44;5253927;26;95241;-74
2024/04/16 11:32:21;;;;;;;;;;;;;;;24.64;40.24;99175.19;5246088;26;119770;-73
2024/04/16 11:34:47;;;;;;;;;;;;;;;24.53;40.37;99177.97;5197758;26;96703;-72
2024/04/16 11:37:16;;;;;;;;;;;;;;;24.33;41.40;99180.25;5241838;26;94380;-73
2024/04/16 11:39:45;;;;;;;;;;;;;;;24.07;40.53;99183.34;5196714;26;94928;-73
2024/04/16 11:42:11;;;;;;;;;;;;;;;23.81;41.02;99179.69;5226114;26;96301;-72
2024/04/16 11:44:38;;;;;;;;;;;;;;;23.56;40.96;99190.56;5219413;26;97631;-72
2024/04/16 11:47:05;;;;;;;;;;;;;;;23.33;41.17;99187.28;5244512;26;95095;-72
2024/04/16 11:49:31;;;;;;;;;;;;;;;23.23;41.05;99189.59;5187446;26;103088;-72
2024/04/16 11:52:01;;;;;;;;;;;;;;;23.28;40.96;99183.72;5189439;26;94359;-72
2024/04/16 11:54:27;;;;;;;;;;;;;;;23.32;40.84;99175.50;5270237;26;95064;-72
2024/04/16 11:56:54;;;;;;;;;;;;;;;23.35;40.94;99180.25;5239702;26;94790;-73
2024/04/16 11:59:20;;;;;;;;;;;;;;;23.40;40.36;99177.13;5186127;26;94252;-73
2024/04/16 12:01:47;;;;;;;;;;;;;;;25.13;38.58;99170.88;5188651;26;97237;-73
2024/04/16 12:04:13;;;;;;;;;;;;;;;25.80;38.20;99164.41;5226439;26;94458;-72
2024/04/16 12:06:39;;;;;;;;;;;;;;;26.25;39.00;99163.75;5241854;26;94867;-74
2024/04/16 12:09:05;;;;;;;;;;;;;;;25.69;39.05;99169.16;5196659;26;94661;-73
2024/04/16 12:11:31;;;;;;;;;;;;;;;25.51;38.96;99162.94;5243398;26;99148;-73
2024/04/16 12:13:58;;;;;;;;;;;;;;;25.55;40.12;99160.94;5227080;26;94809;-74
2024/04/16 12:16:24;;;;;;;;;;;;;;;25.97;39.48;99159.97;5251574;26;94918;-73
2024/04/16 12:18:52;;;;;;;;;;;;;;;25.95;39.42;99154.09;5254126;26;94629;-73
2024/04/16 12:21:18;;;;;;;;;;;;;;;26.03;39.49;99161.13;5216638;26;94548;-73
2024/04/16 12:23:47;;;;;;;;;;;;;;;26.07;39.11;99153.63;5223021;26;94610;-73
2024/04/16 12:26:13;;;;;;;;;;;;;;;26.31;38.44;99159.41;5189798;26;95434;-73
2024/04/16 12:28:39;;;;;;;;;;;;;;;26.91;38.36;99145.13;5189782;26;94363;-74
2024/04/16 12:31:05;;;;;;;;;;;;;;;27.12;38.04;99149.69;5192198;26;95135;-73
2024/04/16 12:33:31;;;;;;;;;;;;;;;27.55;38.26;99146.47;5270161;26;95867;-72
2024/04/16 12:35:58;;;;;;;;;;;;;;;28.50;37.62;99155.91;5188068;26;94881;-72
2024/04/16 12:38:25;;;;;;;;;;;;;;;27.78;38.38;99156.09;5244015;26;94915;-74
2024/04/16 12:40:51;;;;;;;;;;;;;;;27.54;38.58;99155.16;5217574;26;95604;-74
2024/04/16 12:43:19;;;;;;;;;;;;;;;27.49;38.54;99142.56;5215919;26;95074;-74
2024/04/16 12:45:46;;;;;;;;;;;;;;;28.54;37.54;99132.47;5242934;26;94578;-72